VLG9XJ LEBL-LSZH
Flight info
| Callsign | VLG9XJ |
|---|---|
| Flight time | 1h 22m |
| Altitude | 34000 |
| Route | DALIN DCT PIVUS DCT DIBER DCT ADITA DCT MAXIR DCT LUSOL DCT BODRU DCT OKTET DCT IRMAR DCT KINES DCT VANAS DCT MOBLO DCT LAMUR DCT KORED N871 BERSU |
| Aircraft | A320/M-SDE3FGHIRWY/LB1 |
Departure
| Time | 2026-05-04 17:56 |
|---|---|
| Airport | Josep Tarradellas Barcelona-El Prat Airport (LEBL) |
Arrival
| Time | 2026-05-04 19:18 |
|---|---|
| Airport | Zürich Airport (LSZH) |
| Time | Latitude | Longitude | Altitude | Speed | Heading |
|---|---|---|---|---|---|
| 2026-05-04 17:12 | 41.29088 | 2.08214 | 19 ft | 0 kts | 335° |
| 2026-05-04 17:36 | 41.29076 | 2.08222 | 19 ft | 3 kts | 335° |
| 2026-05-04 17:37 | 41.29056 | 2.08234 | 22 ft | 3 kts | 337° |
| 2026-05-04 17:37 | 41.29035 | 2.08244 | 22 ft | 3 kts | 354° |
| 2026-05-04 17:37 | 41.29014 | 2.08242 | 21 ft | 3 kts | 28° |
| 2026-05-04 17:37 | 41.29002 | 2.08229 | 19 ft | 0 kts | 65° |
| 2026-05-04 17:45 | 41.29003 | 2.08230 | 19 ft | 0 kts | 65° |
| 2026-05-04 17:46 | 41.29003 | 2.08231 | 19 ft | 0 kts | 65° |
| 2026-05-04 17:46 | 41.29006 | 2.08239 | 20 ft | 0 kts | 65° |
| 2026-05-04 17:48 | 41.29006 | 2.08240 | 20 ft | 0 kts | 65° |
| 2026-05-04 17:49 | 41.29014 | 2.08262 | 19 ft | 8 kts | 65° |
| 2026-05-04 17:49 | 41.29035 | 2.08326 | 21 ft | 6 kts | 73° |
| 2026-05-04 17:49 | 41.29010 | 2.08356 | 18 ft | 5 kts | 171° |
| 2026-05-04 17:49 | 41.28948 | 2.08332 | 18 ft | 14 kts | 199° |
| 2026-05-04 17:50 | 41.28849 | 2.08286 | 17 ft | 15 kts | 199° |
| 2026-05-04 17:50 | 41.28752 | 2.08242 | 16 ft | 10 kts | 199° |
| 2026-05-04 17:50 | 41.28713 | 2.08240 | 17 ft | 3 kts | 147° |
| 2026-05-04 17:50 | 41.28706 | 2.08260 | 18 ft | 3 kts | 105° |
| 2026-05-04 17:51 | 41.28717 | 2.08309 | 18 ft | 9 kts | 65° |
| 2026-05-04 17:51 | 41.28750 | 2.08404 | 20 ft | 13 kts | 65° |
| 2026-05-04 17:51 | 41.28791 | 2.08523 | 19 ft | 17 kts | 65° |
| 2026-05-04 17:51 | 41.28846 | 2.08683 | 20 ft | 20 kts | 66° |
| 2026-05-04 17:52 | 41.28908 | 2.08862 | 18 ft | 22 kts | 65° |
| 2026-05-04 17:52 | 41.28973 | 2.09053 | 17 ft | 23 kts | 66° |
| 2026-05-04 17:52 | 41.29042 | 2.09253 | 18 ft | 24 kts | 65° |
| 2026-05-04 17:52 | 41.29114 | 2.09463 | 17 ft | 25 kts | 65° |
| 2026-05-04 17:53 | 41.29188 | 2.09682 | 17 ft | 26 kts | 65° |
| 2026-05-04 17:53 | 41.29261 | 2.09891 | 17 ft | 20 kts | 65° |
| 2026-05-04 17:53 | 41.29274 | 2.10026 | 17 ft | 15 kts | 111° |
| 2026-05-04 17:53 | 41.29239 | 2.10143 | 17 ft | 10 kts | 110° |
| 2026-05-04 17:54 | 41.29213 | 2.10209 | 17 ft | 7 kts | 152° |
| 2026-05-04 17:54 | 41.29179 | 2.10192 | 17 ft | 4 kts | 223° |
| 2026-05-04 17:54 | 41.29168 | 2.10168 | 18 ft | 0 kts | 243° |
| 2026-05-04 17:55 | 41.29157 | 2.10141 | 20 ft | 22 kts | 243° |
| 2026-05-04 17:55 | 41.28981 | 2.09623 | 19 ft | 97 kts | 246° |
| 2026-05-04 17:55 | 41.28623 | 2.08569 | 25 ft | 152 kts | 246° |
| 2026-05-04 17:55 | 41.28182 | 2.07224 | 493 ft | 158 kts | 246° |
| 2026-05-04 17:56 | 41.27518 | 2.06081 | 1120 ft | 162 kts | 212° |
| 2026-05-04 17:56 | 41.26370 | 2.05691 | 1390 ft | 188 kts | 182° |
| 2026-05-04 17:56 | 41.24996 | 2.05707 | 1720 ft | 207 kts | 182° |
| 2026-05-04 17:56 | 41.23536 | 2.05722 | 2439 ft | 209 kts | 182° |
| 2026-05-04 17:57 | 41.22082 | 2.05728 | 3259 ft | 209 kts | 182° |
| 2026-05-04 17:57 | 41.20619 | 2.05721 | 3994 ft | 211 kts | 183° |
| 2026-05-04 17:57 | 41.19138 | 2.05704 | 4724 ft | 214 kts | 184° |
| 2026-05-04 17:57 | 41.17640 | 2.05679 | 5412 ft | 217 kts | 184° |
| 2026-05-04 17:58 | 41.16096 | 2.05629 | 5937 ft | 229 kts | 186° |
| 2026-05-04 17:58 | 41.14471 | 2.05552 | 6557 ft | 236 kts | 186° |
| 2026-05-04 17:58 | 41.12823 | 2.05469 | 7256 ft | 238 kts | 186° |
| 2026-05-04 17:58 | 41.11158 | 2.05386 | 7983 ft | 240 kts | 186° |
| 2026-05-04 17:59 | 41.09484 | 2.05304 | 8737 ft | 242 kts | 186° |
| 2026-05-04 17:59 | 41.07797 | 2.05223 | 9489 ft | 244 kts | 187° |
| 2026-05-04 17:59 | 41.04380 | 2.05063 | 10895 ft | 248 kts | 187° |
| 2026-05-04 18:00 | 41.02655 | 2.04982 | 11633 ft | 249 kts | 186° |
| 2026-05-04 18:00 | 41.00915 | 2.05332 | 12344 ft | 261 kts | 163° |
| 2026-05-04 18:00 | 40.99367 | 2.06700 | 12953 ft | 283 kts | 139° |
| 2026-05-04 18:00 | 40.98334 | 2.09082 | 13157 ft | 317 kts | 115° |
| 2026-05-04 18:01 | 40.97584 | 2.11938 | 13309 ft | 341 kts | 113° |
| 2026-05-04 18:01 | 40.96802 | 2.15009 | 13450 ft | 363 kts | 113° |
| 2026-05-04 18:01 | 40.95978 | 2.18265 | 13646 ft | 381 kts | 112° |
| 2026-05-04 18:02 | 40.94953 | 2.25280 | 14667 ft | 404 kts | 88° |
| 2026-05-04 18:02 | 40.95579 | 2.28936 | 15228 ft | 413 kts | 69° |
| 2026-05-04 18:02 | 40.96457 | 2.31182 | 15595 ft | 417 kts | 56° |
| 2026-05-04 18:02 | 40.98350 | 2.34093 | 16173 ft | 420 kts | 45° |
| 2026-05-04 18:03 | 41.00415 | 2.36858 | 16757 ft | 424 kts | 44° |
| 2026-05-04 18:03 | 41.02505 | 2.39637 | 17325 ft | 428 kts | 44° |
| 2026-05-04 18:03 | 41.04621 | 2.42448 | 17897 ft | 432 kts | 44° |
| 2026-05-04 18:03 | 41.06747 | 2.45279 | 18433 ft | 436 kts | 44° |
| 2026-05-04 18:04 | 41.08897 | 2.48146 | 18913 ft | 440 kts | 44° |
| 2026-05-04 18:04 | 41.11058 | 2.51035 | 19407 ft | 444 kts | 44° |
| 2026-05-04 18:04 | 41.15439 | 2.56911 | 20372 ft | 452 kts | 44° |
| 2026-05-04 18:05 | 41.17657 | 2.59890 | 20831 ft | 455 kts | 44° |
| 2026-05-04 18:05 | 41.19897 | 2.62902 | 21276 ft | 459 kts | 44° |
| 2026-05-04 18:05 | 41.22149 | 2.65937 | 21713 ft | 463 kts | 44° |
| 2026-05-04 18:05 | 41.24388 | 2.68957 | 22141 ft | 465 kts | 44° |
| 2026-05-04 18:06 | 41.28984 | 2.75165 | 23021 ft | 471 kts | 44° |
| 2026-05-04 18:06 | 41.31291 | 2.78281 | 23422 ft | 475 kts | 44° |
| 2026-05-04 18:06 | 41.33611 | 2.81415 | 23805 ft | 477 kts | 45° |
| 2026-05-04 18:07 | 41.35944 | 2.84571 | 24151 ft | 479 kts | 45° |
| 2026-05-04 18:07 | 41.38286 | 2.87748 | 24492 ft | 481 kts | 45° |
| 2026-05-04 18:07 | 41.40629 | 2.90935 | 24820 ft | 483 kts | 45° |
| 2026-05-04 18:07 | 41.42988 | 2.94150 | 25144 ft | 486 kts | 45° |
| 2026-05-04 18:08 | 41.45318 | 2.97327 | 25464 ft | 488 kts | 45° |
| 2026-05-04 18:08 | 41.47702 | 3.00574 | 25780 ft | 490 kts | 45° |
| 2026-05-04 18:08 | 41.50090 | 3.03830 | 26072 ft | 492 kts | 45° |
| 2026-05-04 18:08 | 41.52488 | 3.07101 | 26367 ft | 494 kts | 45° |
| 2026-05-04 18:09 | 41.57296 | 3.13677 | 27037 ft | 496 kts | 45° |
| 2026-05-04 18:09 | 41.62133 | 3.20310 | 27595 ft | 500 kts | 45° |
| 2026-05-04 18:10 | 41.64564 | 3.23645 | 27850 ft | 502 kts | 45° |
| 2026-05-04 18:10 | 41.67005 | 3.26997 | 28108 ft | 504 kts | 45° |
| 2026-05-04 18:10 | 41.69446 | 3.30357 | 28352 ft | 506 kts | 45° |
| 2026-05-04 18:10 | 41.71814 | 3.33850 | 28583 ft | 507 kts | 52° |
| 2026-05-04 18:11 | 41.73818 | 3.37733 | 28822 ft | 508 kts | 61° |
| 2026-05-04 18:11 | 41.75419 | 3.41939 | 29167 ft | 505 kts | 68° |
| 2026-05-04 18:11 | 41.76843 | 3.46223 | 29499 ft | 504 kts | 68° |
| 2026-05-04 18:11 | 41.78274 | 3.50514 | 29833 ft | 504 kts | 68° |
| 2026-05-04 18:12 | 41.79702 | 3.54800 | 30131 ft | 503 kts | 68° |
| 2026-05-04 18:12 | 41.81123 | 3.59081 | 30391 ft | 503 kts | 68° |
| 2026-05-04 18:12 | 41.82539 | 3.63365 | 30647 ft | 503 kts | 68° |
| 2026-05-04 18:12 | 41.83954 | 3.67661 | 30901 ft | 504 kts | 68° |
| 2026-05-04 18:13 | 41.85371 | 3.71967 | 31151 ft | 504 kts | 68° |
| 2026-05-04 18:13 | 41.86786 | 3.76260 | 31400 ft | 504 kts | 68° |
| 2026-05-04 18:13 | 41.89623 | 3.84885 | 31844 ft | 506 kts | 68° |
| 2026-05-04 18:14 | 41.91044 | 3.89217 | 32086 ft | 507 kts | 68° |
| 2026-05-04 18:14 | 41.92459 | 3.93538 | 32356 ft | 506 kts | 68° |
| 2026-05-04 18:14 | 41.93872 | 3.97869 | 32668 ft | 505 kts | 68° |
| 2026-05-04 18:15 | 41.96671 | 4.06478 | 33190 ft | 505 kts | 68° |
| 2026-05-04 18:15 | 41.99477 | 4.15132 | 33709 ft | 506 kts | 69° |
| 2026-05-04 18:15 | 42.00885 | 4.19474 | 33860 ft | 506 kts | 69° |
| 2026-05-04 18:16 | 42.02294 | 4.23824 | 33927 ft | 508 kts | 69° |
| 2026-05-04 18:16 | 42.05099 | 4.32534 | 33936 ft | 508 kts | 69° |
| 2026-05-04 18:17 | 42.08423 | 4.40919 | 33942 ft | 510 kts | 54° |
| 2026-05-04 18:17 | 42.10690 | 4.44604 | 33938 ft | 511 kts | 45° |
| 2026-05-04 18:18 | 42.18577 | 4.54222 | 33931 ft | 510 kts | 41° |
| 2026-05-04 18:18 | 42.23829 | 4.60566 | 33916 ft | 510 kts | 41° |
| 2026-05-04 18:19 | 42.31746 | 4.70151 | 33942 ft | 510 kts | 41° |
| 2026-05-04 18:19 | 42.37032 | 4.76566 | 33948 ft | 510 kts | 41° |
| 2026-05-04 18:20 | 42.42312 | 4.82985 | 33951 ft | 510 kts | 41° |
| 2026-05-04 18:20 | 42.47589 | 4.89417 | 33959 ft | 510 kts | 41° |
| 2026-05-04 18:21 | 42.52852 | 4.95854 | 33952 ft | 510 kts | 41° |
| 2026-05-04 18:21 | 42.58120 | 5.02312 | 33958 ft | 510 kts | 41° |
| 2026-05-04 18:22 | 42.63385 | 5.08766 | 33965 ft | 510 kts | 41° |
| 2026-05-04 18:22 | 42.68647 | 5.15237 | 33966 ft | 510 kts | 41° |
| 2026-05-04 18:23 | 42.73907 | 5.21726 | 33974 ft | 510 kts | 41° |
| 2026-05-04 18:23 | 42.79161 | 5.28229 | 33978 ft | 510 kts | 41° |
| 2026-05-04 18:24 | 42.84410 | 5.34734 | 33957 ft | 511 kts | 41° |
| 2026-05-04 18:24 | 42.89663 | 5.41264 | 33990 ft | 512 kts | 41° |
| 2026-05-04 18:25 | 42.94925 | 5.47819 | 33989 ft | 512 kts | 41° |
| 2026-05-04 18:25 | 43.00179 | 5.54384 | 33997 ft | 512 kts | 42° |
| 2026-05-04 18:26 | 43.05439 | 5.60970 | 33999 ft | 512 kts | 41° |
| 2026-05-04 18:26 | 43.10695 | 5.67553 | 34033 ft | 513 kts | 42° |
| 2026-05-04 18:27 | 43.15918 | 5.74112 | 34003 ft | 513 kts | 41° |
| 2026-05-04 18:27 | 43.21159 | 5.80731 | 34013 ft | 513 kts | 42° |
| 2026-05-04 18:28 | 43.26405 | 5.87370 | 34015 ft | 513 kts | 42° |
| 2026-05-04 18:28 | 43.31647 | 5.94007 | 34039 ft | 512 kts | 42° |
| 2026-05-04 18:29 | 43.37155 | 6.00097 | 34039 ft | 509 kts | 28° |
| 2026-05-04 18:29 | 43.43586 | 6.03868 | 34034 ft | 500 kts | 10° |
| 2026-05-04 18:30 | 43.50392 | 6.05153 | 34040 ft | 491 kts | 359° |
| 2026-05-04 18:30 | 43.53801 | 6.05495 | 34043 ft | 491 kts | 359° |
| 2026-05-04 18:31 | 43.60615 | 6.06179 | 34039 ft | 491 kts | 359° |
| 2026-05-04 18:31 | 43.67434 | 6.06871 | 34055 ft | 491 kts | 359° |
| 2026-05-04 18:32 | 43.74239 | 6.07648 | 34050 ft | 493 kts | 4° |
| 2026-05-04 18:32 | 43.80854 | 6.10362 | 34031 ft | 502 kts | 22° |
| 2026-05-04 18:33 | 43.87133 | 6.14654 | 34047 ft | 503 kts | 23° |
| 2026-05-04 18:33 | 43.93402 | 6.18931 | 34057 ft | 501 kts | 23° |
| 2026-05-04 18:34 | 43.99661 | 6.23200 | 34056 ft | 501 kts | 23° |
| 2026-05-04 18:34 | 44.05902 | 6.27465 | 34074 ft | 499 kts | 24° |
| 2026-05-04 18:35 | 44.12120 | 6.31736 | 34070 ft | 498 kts | 24° |
| 2026-05-04 18:35 | 44.18319 | 6.36018 | 34063 ft | 497 kts | 24° |
| 2026-05-04 18:36 | 44.24514 | 6.40299 | 34083 ft | 497 kts | 24° |
| 2026-05-04 18:36 | 44.30698 | 6.44569 | 34091 ft | 496 kts | 24° |
| 2026-05-04 18:37 | 44.36878 | 6.48856 | 34069 ft | 495 kts | 23° |
| 2026-05-04 18:37 | 44.43051 | 6.53149 | 34101 ft | 496 kts | 24° |
| 2026-05-04 18:38 | 44.49217 | 6.57449 | 34115 ft | 495 kts | 24° |
| 2026-05-04 18:38 | 44.55382 | 6.61760 | 34121 ft | 495 kts | 24° |
| 2026-05-04 18:39 | 44.61509 | 6.66042 | 34130 ft | 495 kts | 24° |
| 2026-05-04 18:39 | 44.67668 | 6.70359 | 34140 ft | 494 kts | 24° |
| 2026-05-04 18:40 | 44.73814 | 6.74681 | 34137 ft | 494 kts | 24° |
| 2026-05-04 18:40 | 44.80216 | 6.77948 | 34152 ft | 487 kts | 7° |
| 2026-05-04 18:41 | 44.86874 | 6.78601 | 34143 ft | 476 kts | 352° |
| 2026-05-04 18:41 | 44.93500 | 6.78166 | 34139 ft | 477 kts | 352° |
| 2026-05-04 18:42 | 45.00126 | 6.77731 | 34148 ft | 477 kts | 353° |
| 2026-05-04 18:42 | 45.06747 | 6.77282 | 34151 ft | 477 kts | 353° |
| 2026-05-04 18:43 | 45.13393 | 6.76839 | 34139 ft | 477 kts | 353° |
| 2026-05-04 18:43 | 45.19996 | 6.76408 | 34134 ft | 476 kts | 353° |
| 2026-05-04 18:44 | 45.26605 | 6.75974 | 34123 ft | 475 kts | 353° |
| 2026-05-04 18:44 | 45.33213 | 6.75534 | 34116 ft | 475 kts | 353° |
| 2026-05-04 18:45 | 45.39814 | 6.75092 | 34110 ft | 475 kts | 353° |
| 2026-05-04 18:45 | 45.46422 | 6.74643 | 34102 ft | 475 kts | 353° |
| 2026-05-04 18:46 | 45.53020 | 6.74193 | 34094 ft | 475 kts | 353° |
| 2026-05-04 18:46 | 45.59633 | 6.73743 | 34097 ft | 475 kts | 353° |
| 2026-05-04 18:47 | 45.66238 | 6.73292 | 34065 ft | 475 kts | 353° |
| 2026-05-04 18:47 | 45.72851 | 6.72834 | 34062 ft | 476 kts | 353° |
| 2026-05-04 18:48 | 45.79498 | 6.72883 | 34067 ft | 483 kts | 4° |
| 2026-05-04 18:48 | 45.84936 | 6.74888 | 34058 ft | 490 kts | 19° |
| 2026-05-04 18:49 | 45.91168 | 6.78908 | 34041 ft | 492 kts | 21° |
| 2026-05-04 18:49 | 45.98389 | 6.83627 | 34049 ft | 492 kts | 21° |
| 2026-05-04 18:50 | 46.03616 | 6.87052 | 34049 ft | 492 kts | 21° |
| 2026-05-04 18:50 | 46.09846 | 6.91153 | 34046 ft | 492 kts | 21° |
| 2026-05-04 18:51 | 46.16079 | 6.95261 | 34035 ft | 492 kts | 22° |
| 2026-05-04 18:51 | 46.22299 | 6.99374 | 34039 ft | 492 kts | 22° |
| 2026-05-04 18:52 | 46.28515 | 7.03484 | 34050 ft | 492 kts | 22° |
| 2026-05-04 18:52 | 46.34730 | 7.07610 | 34050 ft | 491 kts | 22° |
| 2026-05-04 18:53 | 46.40945 | 7.11754 | 34035 ft | 491 kts | 22° |
| 2026-05-04 18:53 | 46.47100 | 7.15859 | 34032 ft | 490 kts | 22° |
| 2026-05-04 18:54 | 46.53294 | 7.19997 | 34030 ft | 490 kts | 22° |
| 2026-05-04 18:54 | 46.59480 | 7.24146 | 34028 ft | 489 kts | 22° |
| 2026-05-04 18:55 | 46.65664 | 7.28308 | 34021 ft | 489 kts | 22° |
| 2026-05-04 18:55 | 46.74925 | 7.34557 | 34022 ft | 489 kts | 23° |
| 2026-05-04 18:56 | 46.81083 | 7.38769 | 34036 ft | 488 kts | 26° |
| 2026-05-04 18:56 | 46.86562 | 7.44601 | 34034 ft | 490 kts | 44° |
| 2026-05-04 18:57 | 46.88832 | 7.48319 | 33780 ft | 489 kts | 52° |
| 2026-05-04 18:57 | 46.90943 | 7.52221 | 32763 ft | 493 kts | 52° |
| 2026-05-04 18:57 | 46.93086 | 7.56179 | 31711 ft | 496 kts | 53° |
| 2026-05-04 18:57 | 46.95226 | 7.60127 | 30603 ft | 496 kts | 53° |
| 2026-05-04 18:58 | 46.97366 | 7.64081 | 29381 ft | 495 kts | 53° |
| 2026-05-04 18:58 | 46.99507 | 7.68043 | 28164 ft | 497 kts | 53° |
| 2026-05-04 18:58 | 47.01658 | 7.72025 | 27016 ft | 498 kts | 53° |
| 2026-05-04 18:58 | 47.03795 | 7.75982 | 26300 ft | 491 kts | 53° |
| 2026-05-04 18:59 | 47.05903 | 7.79885 | 25543 ft | 485 kts | 53° |
| 2026-05-04 18:59 | 47.07981 | 7.83742 | 24795 ft | 480 kts | 53° |
| 2026-05-04 18:59 | 47.10044 | 7.87580 | 24054 ft | 477 kts | 53° |
| 2026-05-04 18:59 | 47.12078 | 7.91367 | 23288 ft | 473 kts | 53° |
| 2026-05-04 19:00 | 47.13898 | 7.95373 | 22563 ft | 466 kts | 62° |
| 2026-05-04 19:00 | 47.15312 | 7.99606 | 21904 ft | 460 kts | 66° |
| 2026-05-04 19:00 | 47.16646 | 8.03790 | 21262 ft | 455 kts | 66° |
| 2026-05-04 19:00 | 47.17981 | 8.07962 | 20635 ft | 450 kts | 66° |
| 2026-05-04 19:01 | 47.19391 | 8.12052 | 19912 ft | 449 kts | 58° |
| 2026-05-04 19:01 | 47.21369 | 8.15592 | 19165 ft | 449 kts | 42° |
| 2026-05-04 19:01 | 47.23937 | 8.18150 | 18466 ft | 445 kts | 23° |
| 2026-05-04 19:01 | 47.26886 | 8.19333 | 17764 ft | 437 kts | 2° |
| 2026-05-04 19:02 | 47.29865 | 8.19062 | 17234 ft | 424 kts | 344° |
| 2026-05-04 19:02 | 47.32583 | 8.17560 | 16668 ft | 414 kts | 330° |
| 2026-05-04 19:02 | 47.35144 | 8.15661 | 16110 ft | 409 kts | 330° |
| 2026-05-04 19:02 | 47.37664 | 8.13772 | 15536 ft | 406 kts | 329° |
| 2026-05-04 19:03 | 47.39971 | 8.11459 | 14970 ft | 396 kts | 313° |
| 2026-05-04 19:03 | 47.41715 | 8.08390 | 14422 ft | 389 kts | 304° |
| 2026-05-04 19:03 | 47.43330 | 8.05209 | 13880 ft | 386 kts | 303° |
| 2026-05-04 19:03 | 47.44928 | 8.02043 | 13270 ft | 383 kts | 303° |
| 2026-05-04 19:04 | 47.46525 | 7.98914 | 12661 ft | 380 kts | 307° |
| 2026-05-04 19:04 | 47.48543 | 7.96450 | 12061 ft | 376 kts | 330° |
| 2026-05-04 19:04 | 47.51024 | 7.95493 | 11484 ft | 369 kts | 357° |
| 2026-05-04 19:04 | 47.53474 | 7.96194 | 10923 ft | 355 kts | 25° |
| 2026-05-04 19:05 | 47.55379 | 7.98361 | 10355 ft | 339 kts | 54° |
| 2026-05-04 19:05 | 47.56326 | 8.01420 | 9807 ft | 322 kts | 84° |
| 2026-05-04 19:05 | 47.56153 | 8.04589 | 9201 ft | 303 kts | 115° |
| 2026-05-04 19:05 | 47.55038 | 8.07101 | 8601 ft | 288 kts | 134° |
| 2026-05-04 19:06 | 47.53717 | 8.09335 | 8026 ft | 290 kts | 134° |
| 2026-05-04 19:06 | 47.52374 | 8.11598 | 7530 ft | 291 kts | 134° |
| 2026-05-04 19:06 | 47.51065 | 8.13805 | 7412 ft | 279 kts | 133° |
| 2026-05-04 19:06 | 47.49816 | 8.15910 | 7285 ft | 267 kts | 134° |
| 2026-05-04 19:07 | 47.48598 | 8.17956 | 7158 ft | 264 kts | 127° |
| 2026-05-04 19:07 | 47.47891 | 8.20433 | 7036 ft | 266 kts | 98° |
| 2026-05-04 19:07 | 47.48105 | 8.23142 | 6920 ft | 270 kts | 71° |
| 2026-05-04 19:07 | 47.49104 | 8.25480 | 6784 ft | 272 kts | 43° |
| 2026-05-04 19:08 | 47.50764 | 8.26796 | 6677 ft | 273 kts | 11° |
| 2026-05-04 19:08 | 47.52598 | 8.26715 | 6555 ft | 259 kts | 340° |
| 2026-05-04 19:08 | 47.54077 | 8.25403 | 6433 ft | 243 kts | 310° |
| 2026-05-04 19:08 | 47.55167 | 8.23568 | 6303 ft | 234 kts | 311° |
| 2026-05-04 19:09 | 47.56328 | 8.21934 | 6171 ft | 226 kts | 315° |
| 2026-05-04 19:09 | 47.57486 | 8.20427 | 6041 ft | 218 kts | 316° |
| 2026-05-04 19:09 | 47.58604 | 8.18981 | 5951 ft | 207 kts | 316° |
| 2026-05-04 19:09 | 47.59715 | 8.17702 | 5996 ft | 203 kts | 328° |
| 2026-05-04 19:10 | 47.61046 | 8.17020 | 6003 ft | 205 kts | 349° |
| 2026-05-04 19:10 | 47.62471 | 8.17050 | 6011 ft | 207 kts | 10° |
| 2026-05-04 19:10 | 47.63810 | 8.17821 | 6009 ft | 208 kts | 32° |
| 2026-05-04 19:10 | 47.64893 | 8.19223 | 6018 ft | 207 kts | 47° |
| 2026-05-04 19:11 | 47.65863 | 8.20766 | 5901 ft | 207 kts | 47° |
| 2026-05-04 19:11 | 47.66845 | 8.22357 | 5771 ft | 206 kts | 52° |
| 2026-05-04 19:11 | 47.67438 | 8.24262 | 5636 ft | 204 kts | 81° |
| 2026-05-04 19:11 | 47.67394 | 8.26294 | 5510 ft | 192 kts | 108° |
| 2026-05-04 19:12 | 47.66829 | 8.27967 | 5388 ft | 179 kts | 132° |
| 2026-05-04 19:12 | 47.65060 | 8.30471 | 5137 ft | 176 kts | 140° |
| 2026-05-04 19:12 | 47.64161 | 8.31710 | 5013 ft | 176 kts | 140° |
| 2026-05-04 19:13 | 47.63262 | 8.32949 | 4889 ft | 176 kts | 140° |
| 2026-05-04 19:13 | 47.62365 | 8.34184 | 4765 ft | 177 kts | 140° |
| 2026-05-04 19:13 | 47.61463 | 8.35426 | 4636 ft | 177 kts | 140° |
| 2026-05-04 19:13 | 47.60567 | 8.36658 | 4509 ft | 176 kts | 140° |
| 2026-05-04 19:14 | 47.59695 | 8.37860 | 4415 ft | 166 kts | 140° |
| 2026-05-04 19:14 | 47.58876 | 8.38985 | 4277 ft | 158 kts | 139° |
| 2026-05-04 19:14 | 47.58081 | 8.40077 | 4069 ft | 156 kts | 138° |
| 2026-05-04 19:14 | 47.57288 | 8.41166 | 3866 ft | 154 kts | 139° |
| 2026-05-04 19:15 | 47.56504 | 8.42243 | 3661 ft | 154 kts | 139° |
| 2026-05-04 19:15 | 47.55719 | 8.43320 | 3461 ft | 153 kts | 139° |
| 2026-05-04 19:15 | 47.54940 | 8.44389 | 3247 ft | 153 kts | 139° |
| 2026-05-04 19:15 | 47.54160 | 8.45458 | 3050 ft | 152 kts | 139° |
| 2026-05-04 19:16 | 47.53386 | 8.46518 | 2849 ft | 151 kts | 139° |
| 2026-05-04 19:16 | 47.52614 | 8.47576 | 2647 ft | 150 kts | 139° |
| 2026-05-04 19:16 | 47.51850 | 8.48624 | 2446 ft | 150 kts | 138° |
| 2026-05-04 19:16 | 47.51084 | 8.49660 | 2230 ft | 149 kts | 139° |
| 2026-05-04 19:17 | 47.50331 | 8.50706 | 1993 ft | 148 kts | 139° |
| 2026-05-04 19:17 | 47.49576 | 8.51744 | 1802 ft | 147 kts | 139° |
| 2026-05-04 19:17 | 47.48827 | 8.52765 | 1635 ft | 147 kts | 139° |
| 2026-05-04 19:17 | 47.48071 | 8.53806 | 1426 ft | 147 kts | 140° |
| 2026-05-04 19:18 | 47.47410 | 8.54696 | 1386 ft | 104 kts | 137° |
| 2026-05-04 19:18 | 47.47006 | 8.55246 | 1388 ft | 55 kts | 137° |
| 2026-05-04 19:18 | 47.46797 | 8.55536 | 1398 ft | 29 kts | 136° |
| 2026-05-04 19:18 | 47.46656 | 8.55657 | 1395 ft | 15 kts | 163° |
| 2026-05-04 19:19 | 47.46570 | 8.55688 | 1400 ft | 12 kts | 167° |
| 2026-05-04 19:19 | 47.46492 | 8.55714 | 1402 ft | 11 kts | 167° |
| 2026-05-04 19:19 | 47.46444 | 8.55730 | 1401 ft | 2 kts | 168° |
| 2026-05-04 19:19 | 47.46438 | 8.55731 | 1396 ft | 0 kts | 168° |
| 2026-05-04 19:20 | 47.46396 | 8.55749 | 1400 ft | 9 kts | 159° |
| 2026-05-04 19:20 | 47.46339 | 8.55817 | 1406 ft | 12 kts | 138° |
| 2026-05-04 19:20 | 47.46271 | 8.55910 | 1402 ft | 15 kts | 137° |
| 2026-05-04 19:21 | 47.46199 | 8.55998 | 1408 ft | 12 kts | 158° |
| 2026-05-04 19:21 | 47.46126 | 8.55994 | 1407 ft | 10 kts | 187° |
| 2026-05-04 19:21 | 47.46057 | 8.55983 | 1407 ft | 11 kts | 186° |
| 2026-05-04 19:21 | 47.45970 | 8.55970 | 1406 ft | 14 kts | 186° |
| 2026-05-04 19:22 | 47.45896 | 8.55932 | 1411 ft | 7 kts | 203° |
| 2026-05-04 19:22 | 47.45866 | 8.55915 | 1414 ft | 3 kts | 200° |
| 2026-05-04 19:22 | 47.45858 | 8.55911 | 1412 ft | 1 kts | 200° |
| 2026-05-04 19:22 | 47.45834 | 8.55898 | 1414 ft | 4 kts | 200° |
| 2026-05-04 19:23 | 47.45829 | 8.55895 | 1413 ft | 0 kts | 200° |
| 2026-05-04 19:25 | 47.45824 | 8.55892 | 1410 ft | 4 kts | 200° |
| 2026-05-04 19:25 | 47.45769 | 8.55875 | 1409 ft | 10 kts | 186° |
| 2026-05-04 19:25 | 47.45695 | 8.55864 | 1410 ft | 11 kts | 185° |
| 2026-05-04 19:26 | 47.45642 | 8.55795 | 1409 ft | 13 kts | 275° |
| 2026-05-04 19:26 | 47.45654 | 8.55639 | 1404 ft | 17 kts | 276° |
| 2026-05-04 19:26 | 47.45668 | 8.55447 | 1401 ft | 18 kts | 275° |
| 2026-05-04 19:26 | 47.45648 | 8.55337 | 1402 ft | 12 kts | 203° |
| 2026-05-04 19:27 | 47.45567 | 8.55378 | 1403 ft | 12 kts | 154° |
| 2026-05-04 19:27 | 47.45497 | 8.55426 | 1407 ft | 10 kts | 155° |
| 2026-05-04 19:27 | 47.45438 | 8.55466 | 1409 ft | 10 kts | 155° |
| 2026-05-04 19:27 | 47.45380 | 8.55505 | 1407 ft | 10 kts | 155° |
| 2026-05-04 19:28 | 47.45299 | 8.55560 | 1413 ft | 15 kts | 153° |
| 2026-05-04 19:28 | 47.45268 | 8.55670 | 1407 ft | 7 kts | 97° |
| 2026-05-04 19:28 | 47.45265 | 8.55734 | 1407 ft | 6 kts | 90° |
| 2026-05-04 19:28 | 47.45267 | 8.55785 | 1407 ft | 4 kts | 77° |
| 2026-05-04 19:29 | 47.45286 | 8.55799 | 1409 ft | 3 kts | 6° |
| 2026-05-04 19:29 | 47.45310 | 8.55803 | 1407 ft | 3 kts | 6° |
| 2026-05-04 19:29 | 47.45329 | 8.55806 | 1407 ft | 3 kts | 6° |
| 2026-05-04 19:29 | 47.45337 | 8.55807 | 1407 ft | 0 kts | 6° |